Time;durP1;ratioP1;P1;durP2;ratioP2;P2;SDS_P1;SDS_P2;PMS_P1;PMS_P2;Temp;Humidity;BMP_temperature;BMP_pressure;BME280_temperature;BME280_humidity;BME280_pressure;Samples;Min_cycle;Max_cycle;Signal;HPM_P1;HPM_P2
2022/08/07 00:00:32;;;;;;;7.28;6.40;;;;;;;13.29;100.00;102741.03;6154284;23;20021;-79
2022/08/07 00:03:01;;;;;;;10.63;6.20;;;;;;;13.29;100.00;102742.78;6154950;23;20325;-78
2022/08/07 00:05:30;;;;;;;8.95;5.57;;;;;;;13.27;100.00;102746.31;6188708;23;20017;-79
2022/08/07 00:07:58;;;;;;;9.13;6.07;;;;;;;13.27;100.00;102743.66;6144835;23;20032;-79
2022/08/07 00:10:29;;;;;;;7.60;5.95;;;;;;;13.25;100.00;102740.09;6187841;23;20028;-77
2022/08/07 00:13:02;;;;;;;5.80;4.97;;;;;;;13.22;100.00;102741.75;6172260;23;20336;-77
2022/08/07 00:15:51;;;;;;;7.88;5.07;;;;;;;13.19;100.00;102745.22;6183834;23;20247;-78
2022/08/07 00:18:23;;;;;;;5.57;5.03;;;;;;;13.17;100.00;102738.09;6173891;23;20446;-77
2022/08/07 00:20:59;;;;;;;8.30;5.95;;;;;;;13.15;100.00;102740.72;6185422;23;20028;-78
2022/08/07 00:23:38;;;;;;;12.55;5.80;;;;;;;13.13;100.00;102738.91;6145993;23;20450;-78
2022/08/07 00:26:09;;;;;;;7.95;6.07;;;;;;;13.09;100.00;102730.00;6188614;23;20013;-78
2022/08/07 00:28:57;;;;;;;7.68;6.80;;;;;;;13.06;100.00;102735.22;6182063;23;20135;-78
2022/08/07 00:31:27;;;;;;;7.35;5.75;;;;;;;13.05;100.00;102730.78;6188919;23;20051;-78
2022/08/07 00:34:09;;;;;;;8.07;6.03;;;;;;;13.05;100.00;102723.72;6162179;23;20112;-78
2022/08/07 00:36:39;;;;;;;8.43;5.05;;;;;;;13.02;100.00;102720.13;6152528;23;20021;-79
2022/08/07 00:39:12;;;;;;;9.45;6.05;;;;;;;13.00;100.00;102717.44;6174920;23;20021;-77
2022/08/07 00:41:58;;;;;;;11.57;6.72;;;;;;;12.99;100.00;102722.72;6174839;23;20451;-78
2022/08/07 00:44:34;;;;;;;6.13;5.35;;;;;;;12.97;100.00;102724.44;6175590;23;20020;-77
2022/08/07 00:47:08;;;;;;;12.98;5.88;;;;;;;12.95;100.00;102726.13;6188042;23;20021;-78
2022/08/07 00:49:58;;;;;;;9.00;5.45;;;;;;;12.92;100.00;102715.50;6169414;23;20183;-78
2022/08/07 00:52:46;;;;;;;6.77;5.53;;;;;;;12.91;100.00;102719.91;6163663;23;20367;-78
2022/08/07 00:55:16;;;;;;;8.90;6.80;;;;;;;12.91;100.00;102732.22;6147864;23;20013;-78
2022/08/07 00:58:04;;;;;;;7.80;6.05;;;;;;;12.89;100.00;102732.16;6186704;23;20020;-78
2022/08/07 01:00:33;;;;;;;12.48;7.05;;;;;;;12.87;100.00;102721.56;6183392;23;20021;-78
2022/08/07 01:03:02;;;;;;;7.95;6.00;;;;;;;12.86;100.00;102722.41;6151697;23;20021;-79
2022/08/07 01:05:34;;;;;;;6.95;6.03;;;;;;;12.83;100.00;102727.63;6178660;23;20017;-79
2022/08/07 01:08:05;;;;;;;7.95;6.75;;;;;;;12.81;100.00;102721.41;6175403;23;20024;-77
2022/08/07 01:10:38;;;;;;;7.68;6.03;;;;;;;12.77;100.00;102722.19;6157981;23;20474;-78
2022/08/07 01:13:14;;;;;;;6.95;6.13;;;;;;;12.74;100.00;102722.13;6176552;23;20032;-77
2022/08/07 01:15:46;;;;;;;6.93;6.00;;;;;;;12.73;100.00;102725.63;6177408;23;20013;-77
2022/08/07 01:18:35;;;;;;;9.25;7.53;;;;;;;12.71;100.00;102727.34;6163449;23;20306;-77
2022/08/07 01:21:23;;;;;;;9.52;7.07;;;;;;;12.70;100.00;102729.94;6144740;23;20116;-78
2022/08/07 01:23:57;;;;;;;8.82;6.32;;;;;;;12.66;100.00;102723.69;6148509;23;20319;-77
2022/08/07 01:26:27;;;;;;;9.15;7.13;;;;;;;12.66;100.00;102731.63;6143380;23;20020;-78
2022/08/07 01:28:56;;;;;;;8.00;7.22;;;;;;;12.63;100.00;102727.16;6183326;23;20127;-77
2022/08/07 01:31:31;;;;;;;9.68;6.65;;;;;;;12.62;100.00;102724.47;6148160;23;20029;-78
2022/08/07 01:34:16;;;;;;;9.52;7.63;;;;;;;12.60;100.00;102724.44;6166036;23;20012;-78
2022/08/07 01:36:48;;;;;;;10.63;7.22;;;;;;;12.59;100.00;102721.72;6178927;23;20013;-79
2022/08/07 01:39:27;;;;;;;9.88;8.05;;;;;;;12.56;100.00;102727.84;6123403;23;20033;-77
2022/08/07 01:42:31;;;;;;;11.50;7.97;;;;;;;12.52;100.00;102720.72;6102153;23;20029;-77
2022/08/07 01:45:21;;;;;;;10.60;8.40;;;;;;;12.51;100.00;102718.03;6145974;23;20052;-77
2022/08/07 01:48:05;;;;;;;11.30;7.57;;;;;;;12.48;100.00;102714.44;6109907;23;20018;-77
2022/08/07 01:51:05;;;;;;;12.05;8.45;;;;;;;12.47;100.00;102717.03;6148228;23;20229;-76
2022/08/07 01:53:56;;;;;;;10.52;7.72;;;;;;;12.46;100.00;102721.44;6151905;23;20230;-78
2022/08/07 01:56:50;;;;;;;9.95;7.93;;;;;;;12.45;100.00;102718.75;6112538;23;20029;-77
2022/08/07 01:59:31;;;;;;;11.25;8.13;;;;;;;12.43;100.00;102712.53;6155594;23;20025;-77
2022/08/07 02:02:06;;;;;;;9.88;8.32;;;;;;;12.42;100.00;102713.38;6138840;23;20160;-78
2022/08/07 02:04:42;;;;;;;9.98;8.13;;;;;;;12.41;100.00;102708.97;6153737;23;20028;-77
2022/08/07 02:07:36;;;;;;;11.48;8.85;;;;;;;12.39;100.00;102708.91;6151289;23;20475;-78
2022/08/07 02:10:25;;;;;;;8.40;7.47;;;;;;;12.36;100.00;102705.31;6146968;23;20100;-78
2022/08/07 02:12:58;;;;;;;9.60;7.30;;;;;;;12.35;100.00;102701.78;6108950;23;20229;-78
2022/08/07 02:15:37;;;;;;;9.68;8.60;;;;;;;12.34;100.00;102694.69;6185499;23;20013;-78
2022/08/07 02:18:11;;;;;;;13.35;7.45;;;;;;;12.34;100.00;102692.03;6147341;23;20028;-77
2022/08/07 02:20:42;;;;;;;13.25;8.35;;;;;;;12.33;100.00;102692.91;6182048;23;20020;-77
2022/08/07 02:23:26;;;;;;;11.38;8.38;;;;;;;12.31;100.00;102697.28;6127697;23;20017;-77
2022/08/07 02:25:57;;;;;;;10.35;7.95;;;;;;;12.31;100.00;102693.75;6171434;23;20025;-77
2022/08/07 02:28:50;;;;;;;8.20;6.85;;;;;;;12.27;100.00;102692.75;6130352;23;20013;-77
2022/08/07 02:31:19;;;;;;;10.65;8.20;;;;;;;12.26;100.00;102690.97;6177276;23;20073;-77
2022/08/07 02:33:58;;;;;;;9.85;8.20;;;;;;;12.24;100.00;102692.66;6178981;23;20021;-77
2022/08/07 02:36:44;;;;;;;8.90;7.20;;;;;;;12.21;100.00;102692.59;6172005;23;20036;-77
2022/08/07 02:39:17;;;;;;;9.98;7.80;;;;;;;12.19;100.00;102689.94;6180933;23;20028;-77
2022/08/07 02:42:12;;;;;;;11.70;7.78;;;;;;;12.16;100.00;102688.94;6175334;23;20040;-77
2022/08/07 02:44:48;;;;;;;9.02;7.90;;;;;;;12.15;100.00;102688.03;6157062;23;20029;-79
2022/08/07 02:47:21;;;;;;;10.32;7.80;;;;;;;12.16;100.00;102689.84;6185255;23;20013;-78
2022/08/07 02:50:14;;;;;;;10.35;8.18;;;;;;;12.16;100.00;102681.03;6165707;23;20027;-77
2022/08/07 02:52:53;;;;;;;13.05;7.72;;;;;;;12.15;100.00;102679.22;6128021;23;20020;-78
2022/08/07 02:55:36;;;;;;;10.57;7.90;;;;;;;12.14;100.00;102688.00;6161479;23;20017;-77
2022/08/07 02:58:27;;;;;;;10.55;7.28;;;;;;;12.12;100.00;102677.41;6176738;23;20017;-77
2022/08/07 03:01:02;;;;;;;11.13;7.80;;;;;;;12.11;100.00;102670.31;6143564;23;20374;-78
2022/08/07 03:03:34;;;;;;;9.25;7.32;;;;;;;12.12;100.00;102682.69;6183311;23;20013;-78
2022/08/07 03:06:40;;;;;;;10.43;7.45;;;;;;;12.08;100.00;102672.91;6184965;23;20017;-78
2022/08/07 03:09:13;;;;;;;9.75;7.97;;;;;;;12.07;100.00;102679.03;6158504;23;20013;-78
2022/08/07 03:12:04;;;;;;;10.38;7.57;;;;;;;12.05;100.00;102672.81;6143390;23;20029;-78
2022/08/07 03:14:38;;;;;;;9.38;7.53;;;;;;;12.04;100.00;102677.19;6141280;23;20028;-77
2022/08/07 03:17:10;;;;;;;10.82;8.05;;;;;;;12.04;100.00;102673.63;6138383;23;20024;-77
2022/08/07 03:19:40;;;;;;;10.85;7.88;;;;;;;12.04;100.00;102671.91;6178790;23;20021;-77
2022/08/07 03:22:10;;;;;;;11.73;8.65;;;;;;;12.03;100.00;102685.09;6176202;23;20017;-77
2022/08/07 03:24:48;;;;;;;10.65;7.70;;;;;;;12.01;100.00;102677.09;6132140;23;20478;-77
2022/08/07 03:27:19;;;;;;;11.18;7.65;;;;;;;11.99;100.00;102676.19;6137705;23;20028;-78
2022/08/07 03:30:08;;;;;;;12.32;7.65;;;;;;;11.98;100.00;102665.56;6156654;23;20021;-78
2022/08/07 03:32:46;;;;;;;9.93;7.05;;;;;;;11.96;100.00;102670.78;6156927;23;20013;-78
2022/08/07 03:35:29;;;;;;;11.93;7.00;;;;;;;11.97;100.00;102671.72;6175979;23;20014;-77
2022/08/07 03:38:19;;;;;;;9.48;7.85;;;;;;;11.97;100.00;102677.00;6147710;23;20013;-77
2022/08/07 03:40:50;;;;;;;9.10;7.88;;;;;;;11.96;100.00;102670.78;6181386;23;20024;-77
2022/08/07 03:43:26;;;;;;;10.55;7.95;;;;;;;11.96;100.00;102675.19;6188602;23;20024;-78
2022/08/07 03:46:03;;;;;;;11.77;8.25;;;;;;;11.94;100.00;102671.63;6146981;23;20235;-79
2022/08/07 03:48:49;;;;;;;10.82;8.45;;;;;;;11.94;100.00;102667.22;6182204;23;20198;-78
2022/08/07 03:51:36;;;;;;;11.20;7.28;;;;;;;11.94;100.00;102666.34;6181768;23;20025;-78
2022/08/07 03:54:15;;;;;;;11.10;8.18;;;;;;;11.94;100.00;102666.34;6167548;23;20354;-78
2022/08/07 03:57:07;;;;;;;9.23;7.00;;;;;;;11.92;100.00;102662.75;6175920;23;20017;-77
2022/08/07 03:59:40;;;;;;;9.25;7.85;;;;;;;11.90;100.00;102671.53;6183919;23;20021;-77
2022/08/07 04:02:43;;;;;;;9.80;7.90;;;;;;;11.88;100.00;102673.22;6159913;23;20629;-77
2022/08/07 04:05:28;;;;;;;9.15;7.47;;;;;;;11.87;100.00;102673.16;6187496;23;20021;-78
2022/08/07 04:08:14;;;;;;;9.95;7.35;;;;;;;11.87;100.00;102670.50;6189795;23;20013;-78
2022/08/07 04:10:50;;;;;;;9.27;7.57;;;;;;;11.89;100.00;102674.13;6156007;23;20021;-78
2022/08/07 04:13:41;;;;;;;10.68;7.40;;;;;;;11.89;100.00;102664.47;6185765;23;20017;-78
2022/08/07 04:16:34;;;;;;;10.68;7.10;;;;;;;11.90;100.00;102675.94;6150480;23;20331;-77
2022/08/07 04:19:06;;;;;;;8.25;7.30;;;;;;;11.90;100.00;102676.81;6161901;23;20143;-78
2022/08/07 04:21:44;;;;;;;13.70;8.07;;;;;;;11.93;100.00;102673.38;6146567;23;20032;-76
2022/08/07 04:24:37;;;;;;;12.63;7.93;;;;;;;11.94;100.00;102667.22;6156409;23;20473;-78
2022/08/07 04:27:11;;;;;;;12.57;8.68;;;;;;;11.97;100.00;102671.72;6124959;23;20028;-77
2022/08/07 04:29:55;;;;;;;11.15;7.90;;;;;;;11.99;100.00;102681.47;6172825;23;20257;-78
2022/08/07 04:32:47;;;;;;;11.65;7.68;;;;;;;12.03;100.00;102677.16;6125359;23;20017;-77
2022/08/07 04:35:26;;;;;;;11.43;7.68;;;;;;;12.06;100.00;102680.78;6182616;23;20013;-77
2022/08/07 04:38:07;;;;;;;10.93;8.00;;;;;;;12.09;100.00;102675.56;6171590;23;20214;-78
2022/08/07 04:40:43;;;;;;;11.43;8.38;;;;;;;12.13;100.00;102679.16;6182234;23;20024;-79
2022/08/07 04:43:37;;;;;;;12.02;8.50;;;;;;;12.17;100.00;102675.75;6171552;23;20028;-77
2022/08/07 04:46:31;;;;;;;11.15;8.57;;;;;;;12.21;100.00;102666.16;6160085;23;20021;-78
2022/08/07 04:49:37;;;;;;;10.80;7.65;;;;;;;12.26;100.00;102667.16;6183769;23;20017;-77
2022/08/07 04:52:09;;;;;;;11.05;8.95;;;;;;;12.29;100.00;102670.78;6185539;23;20020;-77
2022/08/07 04:54:40;;;;;;;;;;;;;;;12.40;100.00;102671.06;6143378;23;20027;-77
2022/08/07 04:57:27;;;;;;;11.88;8.45;;;;;;;13.10;100.00;102668.28;6177585;23;19920;-77
2022/08/07 05:00:20;;;;;;;10.85;7.35;;;;;;;14.08;100.00;102669.31;6185730;23;20065;-77
2022/08/07 05:03:26;;;;;;;11.25;8.63;;;;;;;15.13;100.00;102663.03;6158564;23;20258;-78
2022/08/07 05:06:21;;;;;;;10.52;6.97;;;;;;;16.07;100.00;102664.13;6131902;23;20028;-78
2022/08/07 05:09:00;;;;;;;8.52;7.03;;;;;;;16.74;100.00;102659.31;6179434;23;20009;-77
2022/08/07 05:11:45;;;;;;;7.00;6.28;;;;;;;17.32;100.00;102663.22;6154101;23;20017;-77
2022/08/07 05:14:37;;;;;;;7.82;5.82;;;;;;;17.84;100.00;102655.38;6171990;23;20029;-78
2022/08/07 05:17:27;;;;;;;6.30;5.70;;;;;;;18.56;100.00;102666.97;6187167;23;20025;-77
2022/08/07 05:20:23;;;;;;;7.45;5.82;;;;;;;19.20;100.00;102657.94;6156288;23;20020;-77
2022/08/07 05:23:05;;;;;;;8.50;5.50;;;;;;;19.77;100.00;102666.59;6182342;23;20665;-78
2022/08/07 05:25:47;;;;;;;6.83;5.20;;;;;;;20.33;100.00;102674.22;6146395;23;20494;-77
2022/08/07 05:28:37;;;;;;;5.88;5.28;;;;;;;20.88;100.00;102665.66;6156932;23;20024;-77
2022/08/07 05:31:12;;;;;;;6.38;5.13;;;;;;;21.34;99.20;102664.22;6161429;23;20029;-78
2022/08/07 05:33:48;;;;;;;8.80;5.22;;;;;;;21.78;96.09;102663.63;6141187;23;20028;-77
2022/08/07 05:36:36;;;;;;;7.07;4.67;;;;;;;22.17;92.22;102661.25;6172654;23;20186;-77
2022/08/07 05:39:12;;;;;;;5.78;5.07;;;;;;;22.00;90.54;102655.25;6130475;23;20264;-78
2022/08/07 05:42:03;;;;;;;10.05;5.95;;;;;;;21.74;88.30;102659.22;6181048;23;20147;-77
2022/08/07 05:44:41;;;;;;;5.50;5.00;;;;;;;21.32;87.67;102660.66;6157965;23;20020;-77
2022/08/07 05:47:32;;;;;;;8.35;5.60;;;;;;;20.76;88.08;102663.13;6167750;23;20028;-76
2022/08/07 05:50:28;;;;;;;6.88;5.18;;;;;;;20.44;88.60;102683.03;6185863;23;20368;-78
2022/08/07 05:52:56;;;;;;;5.75;5.22;;;;;;;20.23;88.67;102671.59;6173020;23;20021;-77
2022/08/07 05:55:26;;;;;;;5.80;4.97;;;;;;;19.95;89.62;102670.03;6156309;23;20017;-78
2022/08/07 05:58:16;;;;;;;5.30;4.90;;;;;;;19.67;91.43;102678.19;6186156;23;20013;-78
2022/08/07 06:01:07;;;;;;;6.00;4.57;;;;;;;19.57;91.86;102669.34;6179823;23;20124;-78
2022/08/07 06:03:44;;;;;;;7.65;5.85;;;;;;;19.66;90.36;102671.09;6144780;23;20014;-77
2022/08/07 06:06:27;;;;;;;5.38;4.88;;;;;;;19.60;89.98;102674.69;6154840;23;20024;-78
2022/08/07 06:09:03;;;;;;;6.28;5.60;;;;;;;19.74;88.59;102682.66;6159470;23;20130;-79
2022/08/07 06:11:36;;;;;;;6.07;5.40;;;;;;;19.74;86.65;102679.97;6170354;23;20028;-78
2022/08/07 06:14:06;;;;;;;6.45;5.45;;;;;;;19.50;86.52;102680.09;6184782;23;20021;-77
2022/08/07 06:16:50;;;;;;;8.13;5.22;;;;;;;19.28;86.83;102685.50;6175984;23;20142;-77
2022/08/07 06:19:28;;;;;;;6.63;4.97;;;;;;;19.07;86.59;102698.06;6149662;23;20013;-79
2022/08/07 06:22:18;;;;;;;;;;;;;;;18.81;87.47;102698.13;6178410;23;20021;-78
2022/08/07 06:25:01;;;;;;;6.30;4.47;;;;;;;18.61;87.35;102699.91;6183467;23;19916;-77
2022/08/07 06:27:31;;;;;;;6.78;5.13;;;;;;;18.48;87.70;102704.34;6180528;23;20025;-77
2022/08/07 06:30:19;;;;;;;5.82;4.50;;;;;;;18.36;88.02;102691.91;6164366;23;20024;-77
2022/08/07 06:33:07;;;;;;;6.05;4.47;;;;;;;18.25;88.73;102699.91;6150524;23;20024;-79
2022/08/07 06:35:45;;;;;;;5.78;4.68;;;;;;;18.21;89.24;102706.13;6140625;23;20021;-77
2022/08/07 06:38:37;;;;;;;5.63;4.38;;;;;;;18.16;89.43;102705.22;6153993;23;20017;-78
2022/08/07 06:41:25;;;;;;;5.43;4.70;;;;;;;18.14;90.12;102704.34;6161521;23;20021;-77
2022/08/07 06:44:18;;;;;;;5.00;4.50;;;;;;;18.14;90.27;102707.00;6162016;23;20017;-77
2022/08/07 06:46:48;;;;;;;6.05;4.38;;;;;;;18.16;90.78;102702.56;6124361;23;20564;-78
2022/08/07 06:49:36;;;;;;;5.70;4.38;;;;;;;18.15;89.90;102698.13;6179352;23;20020;-78
2022/08/07 06:52:33;;;;;;;4.00;3.70;;;;;;;18.15;90.17;102694.53;6148041;23;20017;-78
2022/08/07 06:55:11;;;;;;;4.63;3.97;;;;;;;18.18;90.07;102694.56;6161671;23;20403;-77
2022/08/07 06:58:02;;;;;;;4.93;4.38;;;;;;;18.22;90.32;102691.91;6181695;23;20048;-77
2022/08/07 07:00:39;;;;;;;3.70;3.40;;;;;;;18.26;90.11;102695.44;6148454;23;20017;-77
2022/08/07 07:03:13;;;;;;;4.63;3.13;;;;;;;18.28;89.71;102696.38;6155747;23;20032;-78
2022/08/07 07:05:45;;;;;;;4.43;3.80;;;;;;;18.28;89.92;102691.91;6180032;23;20025;-77
2022/08/07 07:08:32;;;;;;;4.53;3.60;;;;;;;18.31;90.50;102691.88;6169381;23;20040;-77
2022/08/07 07:11:03;;;;;;;4.95;2.95;;;;;;;18.39;90.26;102691.00;6188158;23;20044;-77
2022/08/07 07:13:54;;;;;;;3.53;3.25;;;;;;;18.44;90.51;102695.44;6159996;23;20323;-77
2022/08/07 07:16:35;;;;;;;2.90;2.60;;;;;;;18.47;89.72;102683.91;6189550;23;20040;-77
2022/08/07 07:19:27;;;;;;;2.92;2.70;;;;;;;18.55;89.97;102686.56;6189033;23;20020;-77
2022/08/07 07:22:18;;;;;;;2.67;2.47;;;;;;;18.64;88.92;102681.22;6188824;23;20020;-77
2022/08/07 07:25:08;;;;;;;2.85;2.47;;;;;;;18.71;88.34;102690.97;6153143;23;20362;-78
2022/08/07 07:28:15;;;;;;;2.33;2.22;;;;;;;18.71;86.99;102690.97;6161773;23;20273;-77
2022/08/07 07:31:17;;;;;;;2.95;2.20;;;;;;;18.75;87.45;102683.84;6158260;23;20107;-77
2022/08/07 07:33:55;;;;;;;2.60;2.15;;;;;;;18.83;87.40;102687.44;6182741;23;20028;-77
2022/08/07 07:36:26;;;;;;;2.80;2.08;;;;;;;18.89;87.28;102674.94;6183850;23;20073;-77
2022/08/07 07:39:02;;;;;;;2.40;2.20;;;;;;;18.95;85.92;102674.06;6132528;23;21005;-77
2022/08/07 07:41:32;;;;;;;2.33;2.17;;;;;;;18.99;86.29;102678.50;6180536;23;20020;-77
2022/08/07 07:44:23;;;;;;;2.85;2.63;;;;;;;19.06;85.40;102685.59;6184105;23;20021;-76
2022/08/07 07:46:56;;;;;;;2.60;2.40;;;;;;;19.09;85.18;102674.91;6179426;23;20258;-76
2022/08/07 07:49:44;;;;;;;5.10;3.00;;;;;;;19.17;85.83;102669.53;6182272;23;20017;-76
2022/08/07 07:52:34;;;;;;;2.83;2.55;;;;;;;19.27;85.56;102665.91;6177312;23;20024;-76
2022/08/07 07:55:04;;;;;;;3.47;3.17;;;;;;;19.28;84.34;102666.81;6168229;23;20025;-77
2022/08/07 07:57:33;;;;;;;;;;;;;;;19.29;84.24;102668.59;6187091;23;20025;-77
2022/08/07 08:00:23;;;;;;;3.28;2.97;;;;;;;19.34;84.74;102668.56;6180201;23;19923;-77
2022/08/07 08:03:04;;;;;;;;;;;;;;;19.33;84.11;102664.13;6177940;23;20021;-77
2022/08/07 08:05:37;;;;;;;3.20;3.00;;;;;;;19.34;84.51;102657.88;6175368;23;20349;-77
2022/08/07 08:08:29;;;;;;;4.55;3.33;;;;;;;19.44;84.91;102673.88;6174726;23;20021;-76
2022/08/07 08:11:06;;;;;;;7.18;3.15;;;;;;;19.47;83.91;102667.63;6166038;23;20017;-77
2022/08/07 08:13:43;;;;;;;3.47;2.88;;;;;;;19.45;83.38;102664.97;6184720;23;20017;-77
2022/08/07 08:16:37;;;;;;;6.60;2.92;;;;;;;19.45;83.15;102654.28;6167800;23;20139;-78
2022/08/07 08:19:09;;;;;;;4.80;3.38;;;;;;;19.45;82.72;102658.69;6179206;23;20028;-77
2022/08/07 08:28:18;;;;;;;2.88;2.67;;;;;;;19.59;81.51;102656.84;6170818;23;20032;-76
2022/08/07 08:31:09;;;;;;;5.55;3.05;;;;;;;19.58;79.72;102655.06;6149468;23;20443;-77
2022/08/07 08:33:45;;;;;;;3.88;2.72;;;;;;;19.64;79.90;102660.41;6180842;23;20021;-77
2022/08/07 08:36:28;;;;;;;3.50;3.08;;;;;;;19.65;78.71;102656.81;6181630;23;20526;-76
2022/08/07 08:39:03;;;;;;;3.33;2.75;;;;;;;19.67;79.27;102652.34;6185477;23;20017;-76
2022/08/07 08:41:45;;;;;;;3.05;2.85;;;;;;;19.73;78.40;102653.25;6143212;23;20021;-76
2022/08/07 08:44:37;;;;;;;4.03;2.97;;;;;;;19.81;79.42;102654.06;6181625;23;20017;-76
2022/08/07 08:47:33;;;;;;;3.20;2.90;;;;;;;19.91;79.10;102644.22;6167719;23;20029;-77
2022/08/07 08:50:29;;;;;;;4.22;2.58;;;;;;;20.03;79.12;102652.13;6153287;23;20013;-76
2022/08/07 08:53:25;;;;;;;3.10;2.80;;;;;;;20.13;78.72;102643.16;6182388;23;20017;-76
2022/08/07 08:56:23;;;;;;;3.63;2.88;;;;;;;20.22;77.04;102643.06;6146532;23;20028;-77
2022/08/07 08:59:01;;;;;;;3.83;2.60;;;;;;;20.32;76.75;102642.97;6167967;23;20454;-76
2022/08/07 09:01:43;;;;;;;4.22;3.35;;;;;;;20.37;75.72;102642.03;6180170;23;20013;-76
2022/08/07 09:04:56;;;;;;;4.00;3.00;;;;;;;20.44;72.16;102643.75;6171506;23;20372;-76
2022/08/07 09:07:45;;;;;;;3.15;2.80;;;;;;;20.44;73.31;102643.75;6175570;23;20367;-77
2022/08/07 09:10:32;;;;;;;2.97;2.78;;;;;;;20.41;72.42;102643.78;6167670;23;20029;-75
2022/08/07 09:13:18;;;;;;;3.22;2.67;;;;;;;20.33;71.01;102639.41;6168723;23;20016;-77
2022/08/07 09:16:20;;;;;;;7.22;2.95;;;;;;;20.13;70.43;102645.84;6177215;23;20028;-78
2022/08/07 09:19:28;;;;;;;3.75;2.63;;;;;;;20.04;70.67;102653.94;6177254;23;20474;-77
2022/08/07 09:22:39;;;;;;;3.13;2.80;;;;;;;20.00;70.77;102652.16;6179218;23;20275;-78
2022/08/07 09:25:45;;;;;;;3.17;2.80;;;;;;;19.99;70.66;102653.06;6177586;23;20017;-78
2022/08/07 09:28:37;;;;;;;3.00;2.60;;;;;;;19.99;70.61;102651.28;6166691;23;20169;-79
2022/08/07 09:31:50;;;;;;;3.80;2.63;;;;;;;19.98;70.38;102651.28;6149242;23;20398;-77
2022/08/07 09:34:34;;;;;;;2.90;2.70;;;;;;;19.91;70.85;102652.25;6177857;23;20617;-79
2022/08/07 09:42:10;;;;;;;3.13;2.92;;;;;;;20.02;70.94;102645.03;6138789;23;20047;-78
2022/08/07 09:45:06;;;;;;;3.25;2.95;;;;;;;20.18;70.90;102646.66;6169440;23;20021;-78
2022/08/07 09:48:26;;;;;;;3.13;2.92;;;;;;;20.39;70.19;102639.34;6183687;23;20021;-78
2022/08/07 09:51:15;;;;;;;3.40;2.53;;;;;;;20.66;71.16;102630.16;6160081;23;20028;-78
2022/08/07 09:54:12;;;;;;;3.50;2.72;;;;;;;20.93;70.42;102634.34;6186118;23;20032;-78
2022/08/07 09:57:20;;;;;;;3.42;2.45;;;;;;;21.19;69.54;102625.06;6152271;23;20025;-79
2022/08/07 10:00:11;;;;;;;3.75;2.80;;;;;;;21.35;64.68;102623.97;6173861;23;20028;-79
2022/08/07 10:03:07;;;;;;;3.58;2.72;;;;;;;21.42;66.64;102614.94;6158540;23;20013;-79
2022/08/07 10:06:21;;;;;;;2.80;2.60;;;;;;;21.55;67.53;102617.47;6165794;23;20020;-79
2022/08/07 10:09:20;;;;;;;3.13;2.47;;;;;;;21.66;66.46;102610.16;6184065;23;20017;-77
2022/08/07 10:12:43;;;;;;;2.50;2.30;;;;;;;21.74;64.62;102610.94;6183352;23;20351;-78
2022/08/07 10:15:42;;;;;;;3.60;2.45;;;;;;;21.72;64.24;102609.16;6154803;23;20377;-78
2022/08/07 10:18:21;;;;;;;4.43;2.83;;;;;;;21.68;63.77;102604.75;6182718;23;20024;-79
2022/08/07 10:21:25;;;;;;;3.85;2.60;;;;;;;21.70;64.59;102601.16;6185117;23;20025;-79
2022/08/07 10:25:16;;;;;;;2.50;2.30;;;;;;;21.74;62.88;102600.19;6175740;23;20025;-80
2022/08/07 10:28:02;;;;;;;2.83;2.63;;;;;;;21.85;63.97;102604.50;6119058;23;20022;-78
2022/08/07 10:30:43;;;;;;;2.72;2.35;;;;;;;21.80;57.66;102589.38;6071054;23;20034;-78
2022/08/07 10:33:27;;;;;;;2.60;2.40;;;;;;;21.84;61.07;102594.69;6161408;23;20020;-78
2022/08/07 10:36:39;;;;;;;2.42;2.22;;;;;;;21.92;60.75;102587.38;6184224;23;20480;-79
2022/08/07 10:39:37;;;;;;;4.28;2.60;;;;;;;22.03;61.02;102573.78;6181093;23;20028;-79
2022/08/07 10:42:44;;;;;;;2.53;2.42;;;;;;;22.19;59.02;102570.81;6184862;23;20302;-78
2022/08/07 10:45:29;;;;;;;3.42;2.10;;;;;;;22.24;56.09;102580.56;6160793;23;20021;-78
2022/08/07 10:48:18;;;;;;;5.95;2.65;;;;;;;22.23;58.08;102578.78;6182805;23;20036;-78
2022/08/07 10:50:56;;;;;;;2.65;1.90;;;;;;;22.32;58.55;102568.78;6186990;23;20028;-79
2022/08/07 10:53:54;;;;;;;3.85;2.33;;;;;;;22.35;57.06;102563.38;6184179;23;20025;-79
2022/08/07 10:56:45;;;;;;;3.72;2.30;;;;;;;22.40;55.91;102571.38;6187200;23;20021;-79
2022/08/07 10:59:16;;;;;;;2.50;2.30;;;;;;;22.44;56.44;102559.66;6167015;23;20386;-78
2022/08/07 11:01:58;;;;;;;1.98;1.88;;;;;;;22.45;54.96;102557.84;6173668;23;20017;-80
2022/08/07 11:04:56;;;;;;;2.88;2.67;;;;;;;22.52;56.07;102556.81;6151414;23;20025;-79
2022/08/07 11:07:44;;;;;;;2.08;1.75;;;;;;;22.53;53.10;102561.25;6165761;23;20025;-78
2022/08/07 11:10:46;;;;;;;2.08;1.98;;;;;;;22.60;54.11;102556.66;6172561;23;20226;-79
2022/08/07 11:13:35;;;;;;;1.90;1.65;;;;;;;22.60;52.36;102553.97;6187049;23;20690;-79
2022/08/07 11:16:35;;;;;;;1.85;1.73;;;;;;;22.62;51.36;102549.44;6152218;23;20686;-79
2022/08/07 11:19:21;;;;;;;2.03;1.70;;;;;;;22.69;50.51;102540.34;6184600;23;20021;-79
2022/08/07 11:22:32;;;;;;;2.17;1.52;;;;;;;22.75;51.07;102543.78;6178282;23;20467;-79
2022/08/07 11:25:37;;;;;;;2.22;2.00;;;;;;;22.90;51.66;102537.19;6150607;23;20013;-79
2022/08/07 11:28:27;;;;;;;4.03;2.10;;;;;;;23.04;51.25;102530.66;6173365;23;20024;-79
2022/08/07 11:31:18;;;;;;;2.25;2.00;;;;;;;23.15;49.54;102536.69;6176338;23;20028;-79
2022/08/07 11:34:13;;;;;;;4.53;1.80;;;;;;;23.21;49.70;102525.78;6186783;23;20009;-80
2022/08/07 11:37:10;;;;;;;1.63;1.52;;;;;;;23.28;49.47;102526.53;6183143;23;20028;-79
2022/08/07 11:40:09;;;;;;;2.20;2.00;;;;;;;23.44;50.77;102527.94;6185036;23;20036;-79
2022/08/07 11:42:59;;;;;;;2.30;1.92;;;;;;;23.63;49.44;102523.00;6190210;23;20032;-80
2022/08/07 11:45:59;;;;;;;2.80;1.77;;;;;;;23.70;49.18;102519.19;6158466;23;20025;-79
2022/08/07 11:49:13;;;;;;;3.88;1.90;;;;;;;23.84;50.69;102526.97;6168509;23;20029;-80
2022/08/07 11:52:41;;;;;;;2.10;1.80;;;;;;;23.93;50.70;102518.66;6164247;23;20021;-78
2022/08/07 11:56:06;;;;;;;1.67;1.58;;;;;;;23.98;49.40;102515.81;6179351;23;20028;-80
2022/08/07 11:59:31;;;;;;;3.85;2.40;;;;;;;24.03;48.25;102511.22;6110846;23;20028;-80
2022/08/07 12:02:45;;;;;;;2.03;1.90;;;;;;;24.03;49.76;102513.03;6163651;23;20174;-78
2022/08/07 12:05:45;;;;;;;2.40;2.17;;;;;;;23.97;49.47;102508.69;6175343;23;20635;-79
2022/08/07 12:08:25;;;;;;;2.92;2.33;;;;;;;23.97;49.83;102500.63;6179110;23;20048;-79
2022/08/07 12:11:09;;;;;;;1.85;1.75;;;;;;;24.06;50.15;102511.09;6173401;23;20473;-79
2022/08/07 12:14:27;;;;;;;1.90;1.70;;;;;;;24.21;49.29;102498.16;6182275;23;20071;-80
2022/08/07 12:17:10;;;;;;;2.25;2.05;;;;;;;24.30;48.71;102497.91;6179047;23;20012;-79
2022/08/07 12:20:04;;;;;;;1.63;1.50;;;;;;;24.30;49.75;102508.69;6171966;23;20027;-79
2022/08/07 12:23:07;;;;;;;;;;;;;;;24.25;46.54;102502.53;6189738;23;20017;-79
2022/08/07 12:25:51;;;;;;;2.00;1.80;;;;;;;24.06;49.18;102510.22;6178970;23;19923;-79
2022/08/07 12:28:52;;;;;;;2.00;1.90;;;;;;;23.81;49.84;102515.41;6168005;23;20036;-81
2022/08/07 12:31:27;;;;;;;4.00;2.70;;;;;;;23.43;54.14;102519.91;6149340;23;20021;-81
2022/08/07 12:34:18;;;;;;;2.80;2.60;;;;;;;23.23;57.22;102513.19;6176503;23;20219;-80
2022/08/07 12:36:47;;;;;;;3.50;2.70;;;;;;;23.15;58.24;102515.16;6189843;23;20442;-81
2022/08/07 12:39:19;;;;;;;;;;;;;;;23.04;61.29;102511.84;6187396;23;20021;-80
2022/08/07 12:42:10;;;;;;;2.95;2.70;;;;;;;22.85;60.69;102512.19;6167993;23;19980;-80
2022/08/07 12:44:44;;;;;;;9.60;2.90;;;;;;;22.65;61.57;102511.78;6184861;23;20013;-83
2022/08/07 12:47:24;;;;;;;4.93;3.03;;;;;;;22.44;63.01;102510.38;6181649;23;20375;-81
2022/08/07 12:50:26;;;;;;;4.30;2.95;;;;;;;22.33;64.26;102507.94;6170913;23;20025;-82
2022/08/07 12:53:20;;;;;;;4.18;2.75;;;;;;;22.24;64.38;102506.28;6187876;23;20013;-80
2022/08/07 12:56:15;;;;;;;2.85;2.65;;;;;;;22.11;64.56;102504.75;6146291;23;20511;-81
2022/08/07 12:58:50;;;;;;;3.53;3.22;;;;;;;22.00;64.33;102502.25;6155177;23;20021;-84